Terminal Aerodrome Forecast
Issued by NWS

Home | Current Version | Previous Version | Text Only | Print | Product List | Glossary On
Versions: 1 2 3 4 5 6 7 8 9 10 11 12 13 14 15 16 17 18 19 20 21 22 23 24 25 26 27 28 29
000
FTUS41 KBUF 201500 AAB
TAFIAG
TAF AMD
KIAG 201503Z 2015/2112 21016G30KT P6SM BKN025 BKN150
     FM201600 21020G30KT P6SM SCT030 BKN150
     FM210000 21012G22KT P6SM SCT035 BKN050
     FM210400 21016KT P6SM VCSH SCT025 OVC040
     FM210800 22013KT 6SM -SHRA SCT025 OVC035=

USA.gov is the U.S. government's official web portal to all federal, state and local government web resources and services.